Latest Weather Observations for Parafield

IDS60801

Issued at 3:05 pm CST Friday 1 August 2014 (issued every 30 minutes, with the page automatically refreshed every 10 minutes)

About weather observations | Map of weather stations | Latest weather observations for SA | Other Formats
Station Details ID: 023013 Name: PARAFIELD AIRPORT Lat: -34.80 Lon: 138.63 Height: 9.5 m
Data from the previous 72 hours. | See also: Recent months at Parafield
Date/Time
CST
Temp
°C
App
Temp
°C
Dew
Point
Rel
Hum
%
Delta-T
°C
Wind Press
QNH
hPa
Press
MSL
hPa
Rain
since 9 am
mm
Dir
 
Spd
km/h
Gust
km/h
Spd
kts
Gust
kts
01/03:00pm 11.5 2.9 2.8 55 3.8 SSW 37 56 20 30 1022.2 1022.2 0.6
01/02:31pm 12.6 4.0 2.7 51 4.3 SW 37 67 20 36 1021.3 - 0.6
01/02:30pm 13.0 5.0 3.7 53 4.2 SW 35 50 19 27 1021.4 1021.5 0.6
01/02:23pm 12.7 5.3 4.2 56 3.9 SW 32 50 17 27 1021.3 - 0.6
01/02:00pm 12.3 5.6 5.5 63 3.2 SSW 30 43 16 23 1021.2 - 0.6
01/01:30pm 11.6 3.3 4.1 60 3.3 SW 37 54 20 29 1020.9 1021.0 0.6
01/01:15pm 11.6 3.9 3.4 57 3.6 SSW 33 52 18 28 1020.6 - 0.6
01/01:00pm 10.8 3.2 5.8 71 2.3 SSW 35 48 19 26 1020.6 - 0.6
01/12:53pm 10.7 2.4 6.3 74 2.1 SSW 39 54 21 29 1020.8 - 0.6
01/12:41pm 11.5 3.7 4.7 63 3.1 SW 35 54 19 29 1020.4 - 0.6
01/12:30pm 11.5 3.9 6.0 69 2.6 SW 35 46 19 25 1020.4 1020.5 0.6
01/12:00pm 9.8 4.5 6.7 81 1.4 SW 24 33 13 18 1020.6 1020.7 0.6
01/11:55am 8.2 1.8 5.1 81 1.4 WSW 28 46 15 25 1020.6 - 0.6
01/11:30am 9.6 4.5 5.8 77 1.7 SW 22 37 12 20 1020.2 1020.3 0.2
01/11:27am 9.6 5.0 6.3 80 1.5 SW 20 26 11 14 1020.2 - 0.2
01/11:05am 9.8 1.0 3.8 66 2.6 S 39 46 21 25 1020.1 - 0.0
01/11:00am 11.5 2.9 4.7 63 3.1 SW 39 56 21 30 1019.6 - 0.0
01/10:53am 11.4 3.1 4.4 62 3.2 SW 37 56 20 30 1019.6 - 0.0
01/10:30am 11.1 3.3 4.8 65 2.8 SW 35 50 19 27 1019.3 1019.4 0.0
01/10:00am 10.7 3.4 4.4 65 2.8 SW 32 48 17 26 1018.7 - 0.0
01/09:31am 10.0 2.2 5.0 71 2.3 SW 35 54 19 29 1018.0 - 0.0
01/09:30am 10.4 2.2 5.0 69 2.4 SW 37 54 20 29 1018.0 1018.1 0.0
01/09:17am 10.5 3.6 4.4 66 2.7 SW 30 48 16 26 1017.6 - 0.0
01/09:00am 9.6 2.6 4.2 69 2.4 SSW 30 39 16 21 1017.3 1017.4 12.2
01/08:59am 9.7 3.1 4.3 69 2.4 SSW 28 33 15 18 1017.2 - 12.2
01/08:41am 10.5 2.0 3.1 60 3.2 SW 37 56 20 30 1016.4 - 12.2
01/08:30am 10.4 2.7 3.2 61 3.1 SW 33 50 18 27 1016.1 1016.2 12.2
01/08:18am 9.9 1.8 3.4 64 2.8 SW 35 54 19 29 1016.0 - 12.2
01/08:00am 9.7 1.1 2.6 61 3.0 SW 37 52 20 28 1015.6 - 12.2
01/07:34am 9.9 1.3 2.5 60 3.1 SW 37 57 20 31 1015.0 - 12.2
01/07:30am 10.0 1.4 2.6 60 3.2 SW 37 48 20 26 1014.9 1015.0 12.2
01/07:00am 9.8 0.1 2.6 61 3.1 SW 43 65 23 35 1014.2 - 12.2
01/06:45am 9.6 1.4 2.5 61 3.0 WSW 35 61 19 33 1013.9 - 12.2
01/06:30am 9.4 -0.1 1.8 59 3.2 WSW 41 57 22 31 1013.6 1013.6 12.2
01/06:16am 9.2 1.1 3.2 66 2.6 WSW 35 54 19 29 1013.4 - 12.2
01/06:00am 9.2 0.7 3.4 67 2.5 WSW 37 52 20 28 1013.1 1013.1 12.2
01/05:51am 9.0 1.4 4.0 71 2.2 WSW 33 52 18 28 1012.9 - 12.2
01/05:30am 7.8 1.6 4.4 79 1.5 WSW 26 32 14 17 1012.7 1012.7 12.2
01/05:08am 7.9 -0.6 5.2 83 1.2 SW 39 61 21 33 1012.6 - 12.0
01/05:00am 8.6 1.3 4.6 76 1.8 WSW 32 44 17 24 1012.3 - 11.8
01/04:43am 8.7 0.3 3.7 71 2.2 W 37 56 20 30 1011.8 - 11.6
01/04:30am 8.8 1.0 5.0 77 1.7 W 35 50 19 27 1011.9 1011.9 11.6
01/04:18am 8.7 1.9 5.1 78 1.6 W 30 48 16 26 1011.6 - 11.6
01/04:00am 8.4 1.8 4.4 76 1.8 WSW 28 41 15 22 1011.7 - 11.6
01/03:50am 7.6 1.7 4.0 78 1.6 W 24 33 13 18 1011.7 - 11.6
01/03:30am 7.0 -2.6 4.3 83 1.2 WSW 44 74 24 40 1011.5 1011.5 11.6
01/03:29am 7.0 -2.6 4.5 84 1.1 WSW 44 74 24 40 1011.7 - 11.6
01/03:21am 7.8 -3.7 4.6 80 1.4 WSW 54 74 29 40 1012.0 - 11.2
01/03:14am 9.0 2.5 4.8 75 1.9 W 28 48 15 26 1011.5 - 11.0
01/03:00am 7.9 2.8 4.3 78 1.6 W 20 28 11 15 1011.6 1011.6 11.0
01/02:30am 7.2 0.3 4.5 83 1.2 W 30 46 16 25 1011.5 1011.5 11.0
01/02:15am 7.8 0.4 5.1 83 1.2 WSW 33 52 18 28 1011.7 - 11.0
01/02:00am 8.6 2.8 4.6 76 1.8 WNW 24 32 13 17 1011.7 - 10.8
01/01:30am 8.3 1.6 3.8 73 1.9 W 28 39 15 21 1011.7 1011.7 10.8
01/01:00am 7.3 0.4 4.4 82 1.3 SW 30 46 16 25 1011.9 - 10.8
01/12:47am 8.0 -1.4 4.2 77 1.7 SW 43 61 23 33 1012.0 - 10.8
01/12:45am 8.8 -0.6 4.4 74 1.9 SW 43 50 23 27 1012.0 - 10.8
01/12:30am 9.8 1.7 3.3 64 2.8 W 35 50 19 27 1011.5 1011.5 10.8
01/12:26am 9.6 1.1 3.4 65 2.7 W 37 56 20 30 1011.6 - 10.8
01/12:00am 9.7 2.0 3.4 65 2.7 W 33 46 18 25 1011.3 1011.3 10.8
 
Date/Time
CST
Temp
°C
App
Temp
°C
Dew
Point
Rel
Hum
%
Delta-T
°C
Wind Press
QNH
hPa
Press
MSL
hPa
Rain
since 9 am
mm
Dir
 
Spd
km/h
Gust
km/h
Spd
kts
Gust
kts
31/11:30pm 9.9 1.4 3.2 63 2.9 W 37 57 20 31 1011.1 1011.1 10.8
31/11:19pm 9.4 2.3 3.6 67 2.5 W 30 48 16 26 1011.1 - 10.8
31/11:00pm 9.2 3.7 4.2 71 2.2 W 22 32 12 17 1011.1 - 10.8
31/10:30pm 9.0 2.0 4.0 71 2.2 W 30 41 16 22 1011.0 1011.0 10.8
31/10:00pm 9.3 2.2 3.3 66 2.6 W 30 43 16 23 1011.0 - 10.8
31/09:30pm 9.0 1.5 3.2 67 2.5 WSW 32 46 17 25 1010.9 1010.9 10.8
31/09:25pm 9.2 2.5 3.4 67 2.5 W 28 46 15 25 1010.9 - 10.8
31/09:00pm 8.1 2.4 4.7 79 1.5 SW 24 35 13 19 1011.1 1011.1 10.8
31/08:45pm 9.2 2.7 4.8 74 2.0 W 28 46 15 25 1011.0 - 10.8
31/08:30pm 8.5 3.6 5.3 80 1.4 W 20 28 11 15 1010.8 1010.8 10.8
31/08:00pm 8.1 2.8 5.2 82 1.3 WSW 22 32 12 17 1010.6 - 10.8
31/07:30pm 8.3 -1.0 5.1 80 1.4 SW 43 61 23 33 1010.3 1010.3 10.8
31/07:27pm 8.7 -0.6 5.1 78 1.6 WSW 43 61 23 33 1010.3 - 10.8
31/07:26pm 8.9 -1.0 4.9 76 1.8 WSW 46 61 25 33 1010.2 - 10.8
31/07:25pm 9.5 2.3 4.9 73 2.1 W 32 61 17 33 1010.3 - 10.8
31/07:00pm 9.5 4.3 5.3 75 1.9 W 22 28 12 15 1009.6 - 10.8
31/06:30pm 9.5 4.4 5.9 78 1.7 W 22 28 12 15 1009.4 1009.4 10.8
31/06:08pm 9.2 2.8 5.4 77 1.7 WSW 28 46 15 25 1009.0 - 10.8
31/06:00pm 9.3 2.5 5.3 76 1.8 SW 30 46 16 25 1009.0 1009.0 10.8
31/05:30pm 9.9 2.7 6.1 77 1.8 SW 33 52 18 28 1008.2 1008.2 10.4
31/05:00pm 9.9 1.5 7.5 85 1.1 WSW 41 61 22 33 1007.8 - 10.4
31/04:49pm 10.2 3.1 8.1 87 1.0 W 35 61 19 33 1007.4 - 10.2
31/04:35pm 10.5 2.9 8.9 90 0.8 W 39 63 21 34 1007.3 - 10.2
31/04:32pm 10.8 3.1 8.6 86 1.1 W 39 63 21 34 1007.1 - 10.0
31/04:30pm 11.0 4.0 8.4 84 1.3 W 35 52 19 28 1007.1 1007.1 10.0
31/04:24pm 11.4 5.7 8.3 81 1.5 W 28 50 15 27 1006.9 - 10.0
31/04:01pm 11.2 6.5 9.3 88 1.0 W 24 33 13 18 1006.7 - 9.8
31/04:00pm 11.1 6.4 9.2 88 0.9 W 24 33 13 18 1006.7 - 9.8
31/03:34pm 10.2 5.8 9.0 92 0.6 W 22 35 12 19 1006.7 - 9.8
31/03:30pm 10.0 5.2 8.8 92 0.6 W 24 37 13 20 1006.5 1006.5 9.8
31/03:20pm 9.8 2.8 8.6 92 0.6 W 35 56 19 30 1006.7 - 9.8
31/03:18pm 9.8 2.5 8.6 92 0.6 W 37 56 20 30 1006.7 - 9.8
31/03:12pm 10.1 1.4 7.9 86 1.1 WSW 43 56 23 30 1006.7 - 9.2
31/03:11pm 10.7 2.1 8.3 85 1.2 WSW 43 54 23 29 1006.8 - 9.0
31/03:00pm 12.1 7.6 10.0 87 1.1 WNW 24 32 13 17 1005.7 1005.7 8.6
31/02:54pm 12.0 8.3 10.2 89 0.9 WNW 20 30 11 16 1005.7 - 8.6
31/02:30pm 11.4 8.2 10.0 91 0.7 WNW 17 24 9 13 1005.5 1005.5 8.4
31/02:17pm 11.2 5.9 9.9 92 0.7 W 28 46 15 25 1005.9 - 8.4
31/02:00pm 11.1 5.1 10.0 93 0.6 WSW 32 43 17 23 1005.9 - 8.4
31/01:48pm 11.1 5.1 10.2 94 0.5 WSW 32 43 17 23 1005.7 - 8.0
31/01:30pm 10.5 4.8 9.7 95 0.4 WSW 30 46 16 25 1005.4 1005.4 7.4
31/01:09pm 11.1 6.7 10.5 96 0.3 WSW 24 35 13 19 1005.1 - 5.4
31/01:07pm 11.1 6.7 10.5 96 0.3 WSW 24 35 13 19 1005.1 - 5.2
31/01:00pm 11.0 6.5 10.2 95 0.4 SW 24 33 13 18 1005.0 - 4.8
31/12:42pm 11.4 5.8 10.3 93 0.6 WSW 30 41 16 22 1005.2 - 1.8
31/12:40pm 11.5 5.5 10.2 92 0.7 WSW 32 43 17 23 1005.1 - 1.2
31/12:32pm 12.7 5.5 9.3 80 1.7 WSW 37 43 20 23 1004.9 - 0.0
31/12:30pm 14.8 7.7 9.4 70 2.8 W 37 48 20 26 1004.7 1004.7 0.0
31/12:29pm 14.9 7.8 9.5 70 2.8 WNW 37 46 20 25 1004.6 - 0.0
31/12:00pm 15.6 8.3 8.6 63 3.6 NNW 37 56 20 30 1004.6 1004.6 0.0
31/11:31am 16.1 8.4 8.6 61 3.8 NNW 39 57 21 31 1005.0 - 0.0
31/11:30am 16.1 7.9 8.3 60 4.0 NNW 41 57 22 31 1005.1 1005.1 0.0
31/11:00am 17.4 9.8 9.1 58 4.3 NNW 39 59 21 32 1005.6 - 0.0
31/10:30am 16.6 10.1 9.1 61 3.9 NNW 33 54 18 29 1005.9 1005.9 0.0
31/10:01am 16.0 10.7 9.7 66 3.3 NNW 28 46 15 25 1006.2 - 0.0
31/10:00am 15.8 9.9 9.0 64 3.5 NNW 30 46 16 25 1006.2 - 0.0
31/09:57am 15.7 10.2 9.1 65 3.4 NNW 28 46 15 25 1006.3 - 0.0
31/09:30am 14.5 10.4 8.7 68 2.9 N 20 30 11 16 1006.9 1006.9 0.0
31/09:00am 13.5 10.3 8.6 72 2.5 N 15 20 8 11 1007.3 1007.3 0.0
31/08:30am 12.1 9.2 8.0 76 2.0 N 13 19 7 10 1007.4 1007.4 0.0
31/08:00am 11.2 7.8 7.5 78 1.8 N 15 20 8 11 1007.6 - 0.0
31/07:30am 10.2 5.9 7.1 81 1.5 N 19 22 10 12 1007.3 1007.3 0.0
31/07:00am 10.3 6.4 7.2 81 1.5 N 17 22 9 12 1007.9 - 0.0
31/06:30am 8.8 5.5 6.4 85 1.1 NNE 13 15 7 8 1007.9 1007.9 0.0
31/06:00am 8.7 5.0 6.3 85 1.1 N 15 15 8 8 1007.7 1007.7 0.0
31/05:30am 9.7 6.4 6.6 81 1.4 N 13 17 7 9 1008.0 1008.0 0.0
31/05:00am 10.8 5.9 6.9 77 1.8 N 22 33 12 18 1007.8 - 0.0
31/04:30am 10.7 6.2 7.0 78 1.8 N 20 28 11 15 1008.1 1008.1 0.0
31/04:00am 11.0 6.8 7.3 78 1.8 N 19 28 10 15 1008.5 - 0.0
31/03:30am 10.8 6.6 7.5 80 1.6 N 19 26 10 14 1009.1 1009.1 0.0
31/03:00am 10.3 6.9 7.5 83 1.3 NNE 15 20 8 11 1009.5 1009.5 0.0
31/02:30am 9.6 6.5 7.2 85 1.1 NNE 13 15 7 8 1010.2 1010.2 0.0
31/02:00am 10.2 7.2 7.8 85 1.2 NNE 13 19 7 10 1010.6 - 0.0
31/01:30am 10.6 7.4 8.4 86 1.1 NNE 15 20 8 11 1011.1 1011.1 0.0
31/01:00am 10.3 7.0 8.2 87 1.0 N 15 17 8 9 1011.3 - 0.0
31/12:30am 10.4 7.6 8.5 88 0.9 NNE 13 17 7 9 1011.8 1011.8 0.0
31/12:00am 10.4 7.3 8.7 89 0.8 NNE 15 19 8 10 1012.1 1012.1 0.0
 
Date/Time
CST
Temp
°C
App
Temp
°C
Dew
Point
Rel
Hum
%
Delta-T
°C
Wind Press
QNH
hPa
Press
MSL
hPa
Rain
since 9 am
mm
Dir
 
Spd
km/h
Gust
km/h
Spd
kts
Gust
kts
30/11:30pm 10.0 7.2 8.4 90 0.8 NNE 13 19 7 10 1012.5 1012.5 0.0
30/11:00pm 9.9 7.0 8.3 90 0.8 N 13 15 7 8 1012.9 - 0.0
30/10:30pm 10.4 7.7 8.8 90 0.8 N 13 15 7 8 1013.4 1013.4 0.0
30/10:00pm 10.3 8.3 8.7 90 0.8 N 9 11 5 6 1013.8 - 0.0
30/09:30pm 11.2 8.6 9.5 89 0.9 N 13 15 7 8 1014.0 1014.1 0.0
30/09:00pm 11.8 9.6 9.5 86 1.2 N 11 15 6 8 1014.3 1014.4 0.0
30/08:30pm 12.8 11.1 9.8 82 1.5 N 9 13 5 7 1014.5 1014.6 0.0
30/08:00pm 13.8 12.3 10.6 81 1.7 N 9 13 5 7 1014.6 - 0.0
30/07:30pm 14.2 12.0 10.8 80 1.8 N 13 17 7 9 1014.9 1015.0 0.0
30/07:00pm 14.8 12.3 11.0 78 2.0 NNW 15 20 8 11 1015.0 - 0.0
30/06:30pm 14.5 12.4 11.1 80 1.8 N 13 17 7 9 1014.9 1015.0 0.0
30/06:00pm 14.2 11.7 11.2 82 1.6 N 15 19 8 10 1014.8 1014.9 0.0
30/05:30pm 15.0 12.2 11.4 79 1.9 NNW 17 22 9 12 1014.8 1014.9 0.0
30/05:00pm 15.8 12.6 11.8 77 2.2 NW 20 32 11 17 1014.7 - 0.0
30/04:30pm 15.9 12.3 11.9 77 2.2 NW 22 30 12 16 1014.9 1015.0 0.0
30/04:00pm 15.8 11.9 12.2 79 2.0 NW 24 35 13 19 1015.2 - 0.0
30/03:30pm 15.9 12.0 12.1 78 2.1 NW 24 35 13 19 1015.3 1015.4 0.0
30/03:00pm 16.0 12.4 11.8 76 2.3 NW 22 32 12 17 1015.4 1015.5 0.0
30/02:30pm 16.3 12.4 12.1 76 2.3 NW 24 33 13 18 1015.7 1015.8 0.0
30/02:00pm 16.2 12.3 12.2 77 2.2 NW 24 33 13 18 1015.9 - 0.0
30/01:30pm 16.2 12.4 12.4 78 2.1 NW 24 33 13 18 1016.3 1016.4 0.0
30/01:00pm 15.8 11.2 12.2 79 2.0 NW 28 39 15 21 1016.7 - 0.0
30/12:30pm 16.2 11.6 12.4 78 2.1 NW 28 37 15 20 1017.1 1017.2 0.0
30/12:00pm 16.6 11.4 12.8 78 2.1 NW 32 43 17 23 1017.7 1017.8 0.0
30/11:30am 16.7 12.2 12.5 76 2.3 NW 28 39 15 21 1017.9 1018.0 0.0
30/11:00am 15.9 11.3 12.3 79 2.0 NW 28 37 15 20 1018.5 - 0.0
30/10:30am 14.7 10.3 11.7 82 1.6 NW 26 33 14 18 1018.8 1018.9 0.0
30/10:00am 14.3 10.8 12.2 87 1.1 NW 22 33 12 18 1018.7 - 0.0
30/09:30am 13.5 9.8 11.6 88 1.0 NW 22 30 12 16 1019.1 1019.2 0.0
30/09:00am 13.2 9.9 11.6 90 0.8 NW 20 26 11 14 1018.8 1018.9 0.4
30/08:30am 13.4 10.1 11.5 88 1.0 NW 20 32 11 17 1018.5 - 0.4
30/08:29am 13.3 9.9 11.4 88 1.0 NW 20 32 11 17 1018.6 - 0.4
30/08:00am 13.1 10.0 11.5 90 0.8 NNW 19 24 10 13 1018.7 - 0.4
30/07:30am 12.9 9.8 11.5 91 0.7 NW 19 26 10 14 1018.7 - 0.4
30/07:00am 12.8 9.4 11.4 91 0.7 NNW 20 28 11 15 1018.6 - 0.4
30/06:30am 12.9 9.5 11.3 90 0.8 NNW 20 28 11 15 1018.2 - 0.4
30/06:00am 12.9 9.7 11.3 90 0.8 NNW 19 24 10 13 1018.1 1018.1 0.4
30/05:30am 12.9 9.7 11.1 89 0.9 NNW 19 26 10 14 1017.9 - 0.4
30/05:00am 13.0 9.8 11.4 90 0.8 NNW 19 26 10 14 1017.9 - 0.4
30/04:30am 13.0 9.9 11.6 91 0.7 N 19 32 10 17 1017.8 - 0.4
30/04:00am 13.1 10.1 11.8 92 0.7 N 19 24 10 13 1018.0 - 0.4
30/03:58am 13.1 10.4 11.8 92 0.7 N 17 24 9 13 1018.0 - 0.4
30/03:50am 13.1 10.8 11.8 92 0.7 N 15 24 8 13 1018.0 - 0.4
30/03:30am 13.1 10.1 11.8 92 0.7 N 19 24 10 13 1018.1 - 0.4
30/03:02am 13.2 10.9 11.9 92 0.7 NNW 15 20 8 11 1018.3 - 0.4
30/03:00am 13.2 10.9 11.9 92 0.7 NNW 15 20 8 11 1018.4 1018.4 0.4
30/02:30am 13.2 10.2 11.8 91 0.7 N 19 24 10 13 1018.4 - 0.4
30/02:00am 13.3 10.2 11.7 90 0.9 NNW 19 24 10 13 1018.6 - 0.4
30/01:30am 13.5 10.5 11.9 90 0.9 NNW 19 24 10 13 1018.9 - 0.4
30/01:00am 13.5 10.4 12.1 91 0.8 NNW 20 28 11 15 1018.8 - 0.4
30/12:30am 13.7 10.6 12.1 90 0.9 NNW 20 30 11 16 1018.8 - 0.4
30/12:00am 13.8 10.9 12.2 90 0.9 NW 19 30 10 16 1019.1 1019.1 0.4
 
Date/Time
CST
Temp
°C
App
Temp
°C
Dew
Point
Rel
Hum
%
Delta-T
°C
Wind Press
QNH
hPa
Press
MSL
hPa
Rain
since 9 am
mm
Dir
 
Spd
km/h
Gust
km/h
Spd
kts
Gust
kts
29/11:30pm 13.8 10.7 12.2 90 0.9 NW 20 28 11 15 1019.1 - 0.4
29/11:00pm 13.8 10.4 12.4 91 0.8 NW 22 33 12 18 1019.1 - 0.4
29/10:30pm 13.8 10.4 12.4 91 0.8 NW 22 30 12 16 1019.1 - 0.4
29/10:00pm 14.2 10.7 12.1 87 1.1 WNW 22 33 12 18 1019.1 - 0.4
29/09:30pm 13.8 10.9 12.2 90 0.9 NW 19 24 10 13 1018.9 - 0.4
29/09:00pm 14.0 10.6 12.4 90 0.9 WNW 22 32 12 17 1018.8 1018.8 0.4
29/08:58pm 14.0 10.6 12.4 90 0.9 WNW 22 32 12 17 1018.7 - 0.4
29/08:31pm 13.6 9.0 12.2 91 0.8 WNW 28 41 15 22 1018.7 - 0.4
29/08:30pm 13.6 9.0 12.2 91 0.8 WNW 28 41 15 22 1018.6 - 0.4
29/08:18pm 13.6 8.6 12.2 91 0.8 WNW 30 46 16 25 1018.5 - 0.4
29/08:14pm 13.6 8.2 12.2 91 0.8 W 32 46 17 25 1018.5 - 0.4
29/08:00pm 14.3 9.2 11.8 85 1.3 WNW 30 44 16 24 1018.3 - 0.4
29/07:59pm 14.4 9.7 11.9 85 1.3 W 28 44 15 24 1018.3 - 0.4
29/07:30pm 13.8 10.6 12.0 89 1.0 WNW 20 26 11 14 1018.2 - 0.4
29/07:15pm 13.7 11.3 12.6 93 0.6 WNW 17 24 9 13 1018.1 - 0.4
29/07:14pm 13.7 10.9 12.6 93 0.6 WNW 19 30 10 16 1018.1 - 0.4
29/07:00pm 13.9 9.5 12.8 93 0.6 W 28 39 15 21 1018.1 - 0.4
29/06:49pm 14.2 10.0 12.4 89 1.0 W 26 35 14 19 1018.1 - 0.0
29/06:48pm 14.4 10.2 12.3 87 1.1 W 26 35 14 19 1018.2 - 0.0
29/06:30pm 14.8 11.2 11.8 82 1.6 WNW 22 30 12 16 1017.7 - 0.0
29/06:00pm 15.0 12.0 11.8 81 1.7 NW 19 26 10 14 1017.3 1017.3 0.0
29/05:30pm 14.7 12.1 12.0 84 1.5 WNW 17 22 9 12 1017.2 - 0.0
29/05:00pm 15.1 12.0 12.1 82 1.6 WNW 20 28 11 15 1017.0 - 0.0
29/04:37pm 14.9 11.9 12.4 85 1.4 WNW 20 30 11 16 1016.8 - 0.0
29/04:32pm 14.8 12.0 12.5 86 1.3 WNW 19 24 10 13 1016.8 - 0.0
29/04:30pm 14.8 12.0 12.5 86 1.3 WNW 19 24 10 13 1016.8 - 0.0
29/04:12pm 14.9 11.2 12.6 86 1.3 NW 24 35 13 19 1016.8 - 0.0
29/04:06pm 15.0 12.0 12.5 85 1.4 NW 20 32 11 17 1016.6 - 0.0
29/04:00pm 15.1 11.7 12.6 85 1.4 WNW 22 35 12 19 1016.6 - 0.0
29/03:30pm 15.3 11.0 12.2 82 1.7 NW 26 35 14 19 1016.4 - 0.0

Other Formats:

Comma delimited format used in spreadsheet applications
http://www.bom.gov.au/fwo/IDS60801/IDS60801.95677.axf

JavaScript Object Notation format (JSON) in row-major order
http://www.bom.gov.au/fwo/IDS60801/IDS60801.95677.json